Flight Track Log - Related Links

Times and Time Zones

All times are in EDT time to prevent confusion due to time zone crossing. See the GJS6221 flight status page for this flight to view local times or setup timezone preferences in your user account.

Time Position Orientation Groundspeed Altitude Reporting Facility
EDT Latitude Longitude Course Direction KTS MPH feet Rate Location/Type
Tue 02:08:50 PM 44.2986 -73.1711 197° South 273 314 8,600  Level Boston Center
Tue 02:09:50 PM 44.2233 -73.2019 196° South 288 331 11,000 2,100 Climbing Boston Center
Tue 02:10:50 PM 44.1378 -73.2386 197° South 310 357 12,800 2,050 Climbing Boston Center
Tue 02:11:50 PM 44.0436 -73.2747 195° South 339 390 15,100 2,200 Climbing Boston Center
Tue 02:12:00 PM 43.9025 -73.3657 196° South  Level FlightAware Approximate
Tue 02:12:50 PM 43.9475 -73.3167 197° South 358 412 17,200  Level Boston Center
Tue 02:13:50 PM 43.8450 -73.3614 197° South 374 430 18,800 1,900 Climbing Boston Center
Tue 02:14:50 PM 43.7300 -73.4083 196° South 386 444 21,000 1,550 Climbing Boston Center
Tue 02:15:50 PM 43.6339 -73.4442 195° South 397 457 21,900 500 Climbing Boston Center
Tue 02:16:50 PM 43.5167 -73.4936 197° South 420 483 22,000 50 Climbing Boston Center
Tue 02:17:50 PM 43.4017 -73.5403 196° South 432 497 22,000  Level Boston Center
Tue 02:18:50 PM 43.2825 -73.5867 196° South 437 503 22,000  Level Boston Center
Tue 02:19:50 PM 43.1633 -73.6128 189° South 437 503 22,000  Level Boston Center
Tue 02:20:50 PM 43.0258 -73.6131 180° South 442 509 22,000  Level Boston Center
Tue 02:21:50 PM 42.9069 -73.6136 180° South 437 503 22,000  Level Boston Center
Tue 02:22:50 PM 42.8111 -73.6147 180° South 395 455 22,000  Level Boston Center
Tue 02:23:50 PM 42.7133 -73.6128 179° South 364 419 22,000  Level Boston Center
Tue 02:24:50 PM 42.6131 -73.6136 180° South 359 413 22,000 -450 Level Boston Center
Tue 02:25:50 PM 42.5111 -73.6117 179° South 359 413 21,100 -1,050 Descending Boston Center
Tue 02:26:50 PM 42.4153 -73.6100 179° South 364 419 19,900 -1,150 Descending Boston Center
Tue 02:27:50 PM 42.3153 -73.6108 180° South 364 419 18,800 -900 Descending Boston Center
Tue 02:28:50 PM 42.2192 -73.6231 185° South 370 426 18,100 -400 Descending Boston Center
Tue 02:29:50 PM 42.1169 -73.6436 188° South 375 432 18,000 -150 Descending Boston Center
Tue 02:30:50 PM 42.0042 -73.6639 188° South 375 432 17,800 -700 Descending Boston Center
Tue 02:31:50 PM 41.9039 -73.6842 189° South 369 425 16,600 -1,600 Descending Boston Center
Tue 02:32:50 PM 41.8078 -73.7044 189° South 364 419 14,600 -1,900 Descending Boston Center
Tue 02:33:50 PM 41.7158 -73.7250 189° South 350 403 12,800 -1,450 Descending Boston Center
Tue 02:34:50 PM 41.6281 -73.7397 187° South 327 376 11,700 -1,021 Descending Boston Center
Tue 02:36:11 PM 41.5167 -73.7667 190° South 299 344 10,400 -936 Descending New York TRACON
Tue 02:37:11 PM 41.4333 -73.7833 189° South 284 327 9,500 -650 Descending New York TRACON
Tue 02:38:11 PM 41.3500 -73.8000 189° South 285 328 9,100 -645 Descending New York TRACON
Tue 02:39:12 PM 41.2833 -73.7500 151° Southeast 281 323 8,200 -1,048 Descending New York TRACON
Tue 02:40:17 PM 41.2167 -73.6833 143° Southeast 257 296 6,900 -1,104 Descending New York TRACON
Tue 02:41:17 PM 41.1667 -73.6333 143° Southeast 227 261 5,900 -1,043 Descending New York TRACON
Tue 02:42:12 PM 41.1167 -73.6333 180° South 219 252 4,900 -887 Descending New York TRACON
Tue 02:43:12 PM 41.0667 -73.6500 194° South 213 245 4,200 -400 Descending New York TRACON
Tue 02:44:12 PM 41.0167 -73.6833 207° Southwest 210 242 4,100 -151 Descending New York TRACON
Tue 02:45:11 PM 40.9667 -73.7333 217° Southwest 201 231 3,900 -421 Descending New York TRACON
Tue 02:46:06 PM 40.9167 -73.7667 207° Southwest 206 237 3,300 -900 Descending New York TRACON
Tue 02:47:11 PM 40.8667 -73.8000 207° Southwest 197 227 2,100 -1,008 Descending New York TRACON
Tue 02:48:11 PM 40.8333 -73.8333 217° Southwest 138 159 1,200 -843 Descending New York TRACON
Tue 02:49:12 PM 40.8000 -73.8667 217° Southwest 145 167 400 -787 Descending New York TRACON
Tue 02:51:00 PM 40.7772 -73.8726 180° South  Level Estimated
Tue 02:58:00 PM 40.7772 -73.8726 180° South  Level Estimated

Login

Don't have an account? Register now (free) for customized features, flight alerts, and more!